Time;durP1;ratioP1;P1;durP2;ratioP2;P2;SDS_P1;SDS_P2;PMS_P1;PMS_P2;Temp;Humidity;BMP_temperature;BMP_pressure;BME280_temperature;BME280_humidity;BME280_pressure;Samples;Min_cycle;Max_cycle;Signal;HPM_P1;HPM_P2
2024/01/18 00:00:35;;;;;;;11.18;6.13;;;-1.10;99.90;;;;;;5085959;28;20376;-64
2024/01/18 00:03:01;;;;;;;14.45;5.95;;;-1.10;99.90;;;;;;5084470;28;20044;-64
2024/01/18 00:05:27;;;;;;;9.02;4.97;;;-1.10;99.90;;;;;;5087332;28;20096;-64
2024/01/18 00:07:52;;;;;;;13.02;5.65;;;-1.00;99.90;;;;;;5085917;28;20426;-64
2024/01/18 00:10:23;;;;;;;9.15;4.90;;;-1.00;99.90;;;;;;5085393;28;20125;-65
2024/01/18 00:12:48;;;;;;;8.18;5.32;;;-1.00;99.90;;;;;;5083534;28;20048;-65
2024/01/18 00:15:14;;;;;;;12.38;5.50;;;-1.00;99.90;;;;;;5083924;28;20031;-65
2024/01/18 00:17:40;;;;;;;16.52;6.03;;;-1.00;99.90;;;;;;5084922;28;20075;-64
2024/01/18 00:20:06;;;;;;;10.07;5.68;;;-1.00;99.90;;;;;;5082679;28;20044;-64
2024/01/18 00:22:31;;;;;;;14.05;5.78;;;-1.00;99.90;;;;;;5074335;28;20036;-64
2024/01/18 00:24:57;;;;;;;9.50;5.35;;;-1.00;99.90;;;;;;5086092;28;20028;-64
2024/01/18 00:27:23;;;;;;;8.70;5.55;;;-1.00;99.90;;;;;;5085572;28;20036;-64
2024/01/18 00:29:48;;;;;;;9.75;5.30;;;-1.00;99.90;;;;;;5082864;28;20045;-65
2024/01/18 00:32:14;;;;;;;9.90;4.35;;;-1.10;99.90;;;;;;5087987;28;20044;-64
2024/01/18 00:34:39;;;;;;;7.50;5.43;;;-1.10;99.90;;;;;;5085590;28;20086;-64
2024/01/18 00:37:06;;;;;;;7.97;4.82;;;-1.10;99.90;;;;;;5084728;28;20040;-64
2024/01/18 00:39:31;;;;;;;11.35;4.68;;;-1.00;99.90;;;;;;5084165;28;20109;-64
2024/01/18 00:41:57;;;;;;;8.23;4.50;;;-1.10;99.90;;;;;;5081420;28;20082;-64
2024/01/18 00:44:22;;;;;;;12.68;4.63;;;-1.10;99.90;;;;;;5085227;28;20044;-64
2024/01/18 00:46:48;;;;;;;10.15;4.55;;;-1.10;99.90;;;;;;5081834;28;20032;-65
2024/01/18 00:49:13;;;;;;;7.70;4.07;;;-1.10;99.90;;;;;;5083065;28;20236;-64
2024/01/18 00:51:39;;;;;;;14.10;4.47;;;-1.10;99.90;;;;;;5084682;28;20161;-64
2024/01/18 00:54:05;;;;;;;8.25;4.07;;;-1.00;99.90;;;;;;5084246;28;20055;-64
2024/01/18 00:56:30;;;;;;;10.63;3.95;;;-1.10;99.90;;;;;;5084372;28;20036;-64
2024/01/18 00:58:56;;;;;;;14.10;4.40;;;-1.10;99.90;;;;;;5080268;28;20143;-64
2024/01/18 01:01:22;;;;;;;8.07;3.58;;;-1.10;99.90;;;;;;5113809;27;20401;-64
2024/01/18 01:03:47;;;;;;;7.78;3.70;;;-1.10;99.90;;;;;;5082879;28;20397;-65
2024/01/18 01:06:13;;;;;;;9.07;2.88;;;-1.10;99.90;;;;;;5082282;28;20033;-64
2024/01/18 01:08:39;;;;;;;5.47;3.03;;;-1.20;99.90;;;;;;5082838;28;20085;-64
2024/01/18 01:11:10;;;;;;;7.38;3.30;;;-1.20;99.90;;;;;;5088581;28;20048;-65
2024/01/18 01:13:36;;;;;;;9.55;3.53;;;-1.20;99.90;;;;;;5087903;28;20048;-64
2024/01/18 01:16:02;;;;;;;8.50;3.22;;;-1.20;99.90;;;;;;5113709;27;20390;-64
2024/01/18 01:18:27;;;;;;;7.32;2.80;;;-1.20;99.90;;;;;;5085767;28;20492;-64
2024/01/18 01:20:53;;;;;;;5.78;2.70;;;-1.20;99.90;;;;;;5081844;28;20436;-64
2024/01/18 01:23:19;;;;;;;8.15;3.03;;;-1.20;99.90;;;;;;5084412;28;20040;-64
2024/01/18 01:25:44;;;;;;;10.02;3.00;;;-1.20;99.90;;;;;;5086374;28;20031;-64
2024/01/18 01:28:10;;;;;;;6.80;2.58;;;-1.30;99.90;;;;;;5122134;27;20097;-65
2024/01/18 01:30:36;;;;;;;7.13;2.83;;;-1.30;99.90;;;;;;5084916;28;20175;-64
2024/01/18 01:33:01;;;;;;;7.65;3.10;;;-1.30;99.90;;;;;;5087486;28;20079;-64
2024/01/18 01:35:27;;;;;;;4.90;2.55;;;-1.20;99.90;;;;;;5087864;28;20123;-64
2024/01/18 01:37:53;;;;;;;4.50;2.10;;;-1.30;99.90;;;;;;5120031;27;20039;-64
2024/01/18 01:40:19;;;;;;;6.88;1.70;;;-1.40;99.90;;;;;;5087380;28;20051;-64
2024/01/18 01:42:44;;;;;;;4.07;2.13;;;-1.40;99.90;;;;;;5087087;28;20103;-65
2024/01/18 01:45:10;;;;;;;6.68;2.20;;;-1.40;99.90;;;;;;5117790;27;20160;-64
2024/01/18 01:47:36;;;;;;;6.00;1.90;;;-1.40;99.90;;;;;;5087500;28;20024;-64
2024/01/18 01:50:02;;;;;;;3.75;1.52;;;-1.40;99.90;;;;;;5087143;28;20040;-64
2024/01/18 01:52:30;;;;;;;9.65;2.58;;;-1.40;99.90;;;;;;5091546;28;20049;-63
2024/01/18 01:54:57;;;;;;;5.97;1.27;;;-1.40;99.90;;;;;;5073373;28;20118;-64
2024/01/18 01:57:24;;;;;;;4.60;1.17;;;-1.40;99.90;;;;;;5083777;28;20069;-64
2024/01/18 01:59:50;;;;;;;7.97;1.63;;;-1.30;99.90;;;;;;5091929;28;20593;-64
2024/01/18 02:02:17;;;;;;;6.07;1.05;;;-1.30;99.90;;;;;;5117707;27;20509;-64
2024/01/18 02:04:43;;;;;;;5.47;1.05;;;-1.40;99.90;;;;;;5089070;28;20115;-64
2024/01/18 02:07:10;;;;;;;4.28;1.08;;;-1.40;99.90;;;;;;5089002;28;20036;-64
2024/01/18 02:09:38;;;;;;;6.60;1.27;;;-1.40;99.90;;;;;;5087840;28;20622;-64
2024/01/18 02:12:04;;;;;;;5.85;1.15;;;-1.40;99.90;;;;;;5087420;28;20495;-64
2024/01/18 02:14:30;;;;;;;1.77;0.90;;;-1.40;99.90;;;;;;5086646;28;20383;-64
2024/01/18 02:16:56;;;;;;;5.20;1.05;;;-1.40;99.90;;;;;;5090086;28;20045;-63
2024/01/18 02:19:22;;;;;;;4.07;1.05;;;-1.40;99.90;;;;;;5083288;28;20044;-64
2024/01/18 02:21:48;;;;;;;4.38;1.33;;;-1.50;99.90;;;;;;5088356;28;20090;-64
2024/01/18 02:24:34;;;;;;;4.30;1.00;;;-1.50;99.90;;;;;;5087698;28;20036;-64
2024/01/18 02:26:59;;;;;;;3.55;1.02;;;-1.60;99.90;;;;;;5114872;27;20042;-64
2024/01/18 02:29:25;;;;;;;5.38;1.30;;;-1.50;99.90;;;;;;5087281;28;20039;-63
2024/01/18 02:31:51;;;;;;;4.07;1.10;;;-1.60;99.90;;;;;;5087105;28;20520;-65
2024/01/18 02:34:18;;;;;;;2.35;1.00;;;-1.60;99.90;;;;;;5090757;28;20142;-64
2024/01/18 02:36:44;;;;;;;4.63;1.15;;;-1.60;99.90;;;;;;5089960;28;20463;-64
2024/01/18 02:39:10;;;;;;;3.72;1.05;;;-1.60;99.90;;;;;;5089587;28;20470;-64
2024/01/18 02:41:36;;;;;;;4.65;1.23;;;-1.60;99.90;;;;;;5090526;28;20544;-64
2024/01/18 02:44:02;;;;;;;5.40;1.00;;;-1.60;99.90;;;;;;5081944;28;20070;-65
2024/01/18 02:46:32;;;;;;;4.13;0.85;;;-1.70;99.90;;;;;;5088275;28;20134;-64
2024/01/18 02:48:58;;;;;;;4.70;1.30;;;-1.70;99.90;;;;;;5084430;28;20078;-64
2024/01/18 02:51:24;;;;;;;2.97;1.58;;;-1.70;99.90;;;;;;5090763;28;20067;-64
2024/01/18 02:53:49;;;;;;;5.35;0.70;;;-1.70;99.90;;;;;;5085968;28;20088;-64
2024/01/18 02:56:15;;;;;;;3.22;0.65;;;-1.70;99.90;;;;;;5087560;28;20553;-65
2024/01/18 02:58:41;;;;;;;5.25;0.93;;;-1.60;99.90;;;;;;5089130;28;20501;-64
2024/01/18 03:01:06;;;;;;;2.40;0.50;;;-1.60;99.90;;;;;;5087399;28;20043;-64
2024/01/18 03:03:37;;;;;;;3.28;0.60;;;-1.60;99.90;;;;;;5087837;28;20031;-64
2024/01/18 03:06:03;;;;;;;2.65;0.38;;;-1.60;99.90;;;;;;5088989;28;20552;-63
2024/01/18 03:08:29;;;;;;;5.15;0.60;;;-1.50;99.90;;;;;;5074190;28;20106;-64
2024/01/18 03:10:55;;;;;;;2.85;0.88;;;-1.50;99.90;;;;;;5086364;28;20123;-64
2024/01/18 03:13:20;;;;;;;4.45;0.45;;;-1.60;99.90;;;;;;5087574;28;20120;-64
2024/01/18 03:15:46;;;;;;;4.78;0.45;;;-1.50;99.90;;;;;;5081345;28;20043;-64
2024/01/18 03:18:11;;;;;;;4.88;0.50;;;-1.50;99.90;;;;;;5085584;28;20036;-65
2024/01/18 03:20:37;;;;;;;1.80;0.50;;;-1.60;99.90;;;;;;5071589;28;20123;-64
2024/01/18 03:23:03;;;;;;;1.92;0.50;;;-1.60;99.90;;;;;;5088021;28;20399;-64
2024/01/18 03:25:29;;;;;;;2.63;0.40;;;-1.60;99.90;;;;;;5087629;28;20074;-65
2024/01/18 03:27:54;;;;;;;4.57;0.50;;;-1.60;99.90;;;;;;5083396;28;20090;-64
2024/01/18 03:30:20;;;;;;;5.13;0.75;;;-1.60;99.90;;;;;;5084894;28;20047;-64
2024/01/18 03:32:46;;;;;;;1.92;0.30;;;-1.60;99.90;;;;;;5085110;28;20035;-64
2024/01/18 03:35:12;;;;;;;3.03;0.40;;;-1.60;99.90;;;;;;5114476;27;20078;-64
2024/01/18 03:37:38;;;;;;;1.55;0.80;;;-1.60;99.90;;;;;;5090830;28;20036;-65
2024/01/18 03:40:05;;;;;;;1.55;0.30;;;-1.60;99.90;;;;;;5066860;28;20035;-65
2024/01/18 03:42:30;;;;;;;2.45;0.40;;;-1.50;99.90;;;;;;5084216;28;20040;-64
2024/01/18 03:44:56;;;;;;;3.33;0.32;;;-1.50;99.90;;;;;;5086671;28;20035;-65
2024/01/18 03:47:21;;;;;;;6.10;0.80;;;-1.50;99.90;;;;;;5086175;28;20036;-65
2024/01/18 03:49:47;;;;;;;7.88;1.13;;;-1.50;99.90;;;;;;5081450;28;20564;-65
2024/01/18 03:52:12;;;;;;;3.85;0.55;;;-1.50;99.90;;;;;;5085799;28;20056;-64
2024/01/18 03:54:39;;;;;;;1.77;0.45;;;-1.60;99.90;;;;;;5083131;28;20040;-65
2024/01/18 03:57:05;;;;;;;0.50;0.20;;;-1.60;99.90;;;;;;5086034;28;20055;-65
2024/01/18 03:59:31;;;;;;;2.10;0.50;;;-1.60;99.90;;;;;;5089271;28;20043;-64
2024/01/18 04:01:57;;;;;;;4.03;0.30;;;-1.60;99.90;;;;;;5085429;28;20043;-65
2024/01/18 04:04:23;;;;;;;4.00;0.30;;;-1.60;99.90;;;;;;5115401;27;20067;-65
2024/01/18 04:06:49;;;;;;;1.05;0.43;;;-1.70;99.90;;;;;;5068352;28;20080;-64
2024/01/18 04:09:15;;;;;;;1.73;0.30;;;-1.80;99.90;;;;;;5117103;27;20036;-64
2024/01/18 04:11:41;;;;;;;5.18;0.40;;;-1.70;99.90;;;;;;5087093;28;20131;-64
2024/01/18 04:14:07;;;;;;;2.50;0.47;;;-1.70;99.90;;;;;;5084641;28;20424;-64
2024/01/18 04:16:34;;;;;;;3.10;0.40;;;-1.70;99.90;;;;;;5082023;28;20036;-65
2024/01/18 04:18:59;;;;;;;2.85;0.35;;;-1.60;99.90;;;;;;5085238;28;20509;-64
2024/01/18 04:21:25;;;;;;;7.00;0.70;;;-1.60;99.90;;;;;;5086108;28;20051;-64
2024/01/18 04:23:51;;;;;;;3.88;0.40;;;-1.60;99.90;;;;;;5085767;28;20055;-64
2024/01/18 04:26:17;;;;;;;2.97;0.32;;;-1.60;99.90;;;;;;5086898;28;20041;-64
2024/01/18 04:28:42;;;;;;;2.67;0.25;;;-1.60;99.90;;;;;;5085283;28;20039;-64
2024/01/18 04:31:08;;;;;;;2.17;0.50;;;-1.50;99.90;;;;;;5088158;28;20078;-65
2024/01/18 04:33:33;;;;;;;5.07;0.40;;;-1.60;99.90;;;;;;5083832;28;20036;-65
2024/01/18 04:35:59;;;;;;;4.97;0.30;;;-1.60;99.90;;;;;;5083274;28;20441;-64
2024/01/18 04:38:25;;;;;;;2.15;0.40;;;-1.50;99.90;;;;;;5089754;28;20035;-64
2024/01/18 04:40:50;;;;;;;4.00;0.30;;;-1.50;99.90;;;;;;5082904;28;20032;-65
2024/01/18 04:43:16;;;;;;;1.92;0.30;;;-1.50;99.90;;;;;;5113472;27;20067;-65
2024/01/18 04:45:42;;;;;;;1.50;0.40;;;-1.50;99.90;;;;;;5082490;28;20035;-65
2024/01/18 04:48:09;;;;;;;5.22;0.50;;;-1.60;99.90;;;;;;5084878;28;20123;-65
2024/01/18 04:50:34;;;;;;;1.70;0.30;;;-1.60;99.90;;;;;;5083513;28;20055;-65
2024/01/18 04:53:00;;;;;;;2.05;0.45;;;-1.70;99.90;;;;;;5085684;28;20040;-65
2024/01/18 04:55:26;;;;;;;4.07;0.30;;;-1.70;99.90;;;;;;5082369;28;20086;-65
2024/01/18 04:57:52;;;;;;;1.95;0.35;;;-1.70;99.90;;;;;;5085632;28;20452;-65
2024/01/18 05:00:17;;;;;;;2.22;0.40;;;-1.70;99.90;;;;;;5085571;28;20186;-65
2024/01/18 05:02:44;;;;;;;2.45;0.30;;;-1.80;99.90;;;;;;5086842;28;20039;-65
2024/01/18 05:05:10;;;;;;;2.30;0.40;;;-1.90;99.90;;;;;;5090398;28;20069;-65
2024/01/18 05:07:42;;;;;;;3.13;0.32;;;-1.90;99.90;;;;;;5124254;27;20502;-64
2024/01/18 05:10:11;;;;;;;3.00;0.40;;;-2.00;99.90;;;;;;5088962;28;20044;-64
2024/01/18 05:12:37;;;;;;;2.88;0.40;;;-2.00;99.90;;;;;;5089303;28;20036;-65
2024/01/18 05:15:04;;;;;;;4.85;0.30;;;-2.00;99.90;;;;;;5087843;28;20075;-64
2024/01/18 05:17:35;;;;;;;4.05;0.40;;;-2.00;99.90;;;;;;5087845;28;20020;-65
2024/01/18 05:20:07;;;;;;;2.33;0.32;;;-2.10;99.90;;;;;;5120930;27;20048;-65
2024/01/18 05:22:34;;;;;;;2.50;0.52;;;-2.20;99.90;;;;;;5088253;28;20031;-65
2024/01/18 05:25:03;;;;;;;2.92;0.40;;;-2.20;99.90;;;;;;5089750;28;20068;-64
2024/01/18 05:27:32;;;;;;;2.15;0.30;;;-2.20;99.90;;;;;;5084660;28;20032;-65
2024/01/18 05:29:58;;;;;;;1.40;0.30;;;-2.20;99.90;;;;;;5084538;28;20075;-65
2024/01/18 05:32:24;;;;;;;1.25;0.50;;;-2.30;99.90;;;;;;5082722;28;20063;-65
2024/01/18 05:34:50;;;;;;;3.38;0.28;;;-2.40;99.90;;;;;;5081869;28;20417;-65
2024/01/18 05:37:17;;;;;;;2.47;0.30;;;-2.30;99.90;;;;;;5083335;28;20044;-64
2024/01/18 05:39:43;;;;;;;3.47;0.47;;;-2.30;99.90;;;;;;5082794;28;20054;-65
2024/01/18 05:42:08;;;;;;;3.15;0.75;;;-2.20;99.90;;;;;;5077829;28;20199;-65
2024/01/18 05:44:35;;;;;;;0.98;0.20;;;-2.10;99.90;;;;;;5086727;28;20055;-65
2024/01/18 05:47:01;;;;;;;2.10;0.80;;;-2.20;99.90;;;;;;5084734;28;20082;-64
2024/01/18 05:49:27;;;;;;;1.88;0.30;;;-2.20;99.90;;;;;;5084057;28;20040;-64
2024/01/18 05:51:52;;;;;;;2.55;0.30;;;-2.20;99.90;;;;;;5082510;28;20104;-65
2024/01/18 05:54:18;;;;;;;2.88;0.20;;;-2.20;99.90;;;;;;5085882;28;20082;-65
2024/01/18 05:56:46;;;;;;;4.05;0.38;;;-2.20;99.90;;;;;;5087403;28;20399;-65
2024/01/18 05:59:12;;;;;;;6.65;0.20;;;-2.20;99.90;;;;;;5084040;28;20041;-64
2024/01/18 06:01:38;;;;;;;2.30;0.55;;;-2.10;99.90;;;;;;5085053;28;20089;-64
2024/01/18 06:04:04;;;;;;;2.58;0.50;;;-2.10;99.90;;;;;;5087353;28;20036;-65
2024/01/18 06:06:31;;;;;;;4.35;0.32;;;-2.30;99.90;;;;;;5087279;28;20122;-65
2024/01/18 06:08:57;;;;;;;4.65;1.15;;;-2.40;99.90;;;;;;5084014;28;20048;-65
2024/01/18 06:11:23;;;;;;;2.72;0.28;;;-2.40;99.90;;;;;;5085998;28;20501;-65
2024/01/18 06:13:51;;;;;;;2.75;0.10;;;-2.40;99.90;;;;;;5082667;28;20135;-65
2024/01/18 06:16:16;;;;;;;3.88;0.30;;;-2.40;99.90;;;;;;5088052;28;20134;-65
2024/01/18 06:18:42;;;;;;;2.85;0.20;;;-2.40;99.90;;;;;;5089850;28;20043;-65
2024/01/18 06:21:09;;;;;;;3.65;0.40;;;-2.40;99.90;;;;;;5084600;28;20122;-64
2024/01/18 06:23:35;;;;;;;2.60;0.52;;;-2.40;99.90;;;;;;5091409;28;20043;-65
2024/01/18 06:26:01;;;;;;;3.22;0.50;;;-2.40;99.90;;;;;;5065898;28;20118;-65
2024/01/18 06:28:26;;;;;;;3.75;0.20;;;-2.40;99.90;;;;;;5081598;28;20127;-65
2024/01/18 06:30:53;;;;;;;1.70;0.20;;;-2.30;99.90;;;;;;5082432;28;20497;-65
2024/01/18 06:33:19;;;;;;;1.17;0.20;;;-2.20;99.90;;;;;;5095716;27;20044;-65
2024/01/18 06:35:45;;;;;;;3.50;0.60;;;-2.30;99.90;;;;;;5070856;28;20467;-64
2024/01/18 06:38:11;;;;;;;2.35;0.57;;;-2.20;99.90;;;;;;5084046;28;20041;-65
2024/01/18 06:40:37;;;;;;;1.75;0.10;;;-2.30;99.90;;;;;;5083371;28;20062;-65
2024/01/18 06:43:03;;;;;;;1.83;0.13;;;-2.20;99.90;;;;;;5112516;27;20040;-65
2024/01/18 06:45:29;;;;;;;2.80;0.25;;;-2.20;99.90;;;;;;5110980;27;20036;-65
2024/01/18 06:47:55;;;;;;;3.97;0.30;;;-2.20;99.90;;;;;;5066841;28;20040;-64
2024/01/18 06:50:22;;;;;;;7.10;0.60;;;-2.20;99.90;;;;;;5079792;28;20044;-64
2024/01/18 06:52:48;;;;;;;3.70;0.22;;;-2.20;99.90;;;;;;5083050;28;20539;-65
2024/01/18 06:55:14;;;;;;;4.28;0.20;;;-2.10;99.90;;;;;;5079385;28;20401;-65
2024/01/18 06:57:39;;;;;;;3.15;0.63;;;-2.20;99.90;;;;;;5078381;28;20032;-65
2024/01/18 07:00:06;;;;;;;3.75;0.20;;;-2.10;99.90;;;;;;5081613;28;20085;-64
2024/01/18 07:02:33;;;;;;;4.50;0.30;;;-2.10;99.90;;;;;;5080800;28;20047;-65
2024/01/18 07:04:59;;;;;;;1.55;0.40;;;-2.10;99.90;;;;;;5070950;28;20039;-65
2024/01/18 07:07:25;;;;;;;3.33;0.30;;;-2.10;99.90;;;;;;5070200;28;20032;-65
2024/01/18 07:09:51;;;;;;;2.75;0.10;;;-2.10;99.90;;;;;;5082571;28;20382;-65
2024/01/18 07:12:17;;;;;;;6.53;0.40;;;-2.10;99.90;;;;;;5083496;28;20036;-65
2024/01/18 07:14:43;;;;;;;1.55;0.17;;;-2.20;99.90;;;;;;5084777;28;20488;-65
2024/01/18 07:17:10;;;;;;;2.03;0.32;;;-2.10;99.90;;;;;;5110910;27;20053;-65
2024/01/18 07:19:36;;;;;;;4.95;0.30;;;-2.10;99.90;;;;;;5083795;28;20044;-65
2024/01/18 07:22:02;;;;;;;1.80;0.35;;;-2.10;99.90;;;;;;5085941;28;20081;-65
2024/01/18 07:24:30;;;;;;;3.53;0.20;;;-2.10;99.90;;;;;;5113555;27;20101;-65
2024/01/18 07:26:56;;;;;;;2.65;0.40;;;-2.10;99.90;;;;;;5114688;27;20094;-65
2024/01/18 07:29:22;;;;;;;2.83;0.52;;;-2.10;99.90;;;;;;5084599;28;20031;-66
2024/01/18 07:31:47;;;;;;;2.90;0.30;;;-2.00;99.90;;;;;;5085648;28;20078;-65
2024/01/18 07:34:13;;;;;;;3.83;0.20;;;-2.00;99.90;;;;;;5071014;28;20040;-65
2024/01/18 07:36:39;;;;;;;1.95;0.28;;;-2.00;99.90;;;;;;5073660;28;20127;-65
2024/01/18 07:39:05;;;;;;;0.82;0.20;;;-2.00;99.90;;;;;;5075730;28;20047;-64
2024/01/18 07:41:31;;;;;;;7.28;0.32;;;-2.00;99.90;;;;;;5072576;28;20462;-65
2024/01/18 07:43:56;;;;;;;1.67;0.20;;;-2.00;99.90;;;;;;5096917;27;20074;-65
2024/01/18 07:46:22;;;;;;;5.82;0.35;;;-2.00;99.90;;;;;;5072800;28;20489;-65
2024/01/18 07:48:48;;;;;;;6.25;0.35;;;-2.00;99.90;;;;;;5073177;28;20036;-64
2024/01/18 07:51:13;;;;;;;2.83;0.20;;;-2.00;99.90;;;;;;5071664;28;20108;-65
2024/01/18 07:53:39;;;;;;;1.20;0.10;;;-2.00;99.90;;;;;;5072808;28;20413;-65
2024/01/18 07:56:05;;;;;;;1.50;0.57;;;-2.10;99.90;;;;;;5069576;28;20490;-64
2024/01/18 07:58:30;;;;;;;6.30;0.30;;;-2.00;99.90;;;;;;5069511;28;20140;-65
2024/01/18 08:00:56;;;;;;;1.10;0.15;;;-2.00;99.90;;;;;;5067418;28;20418;-64
2024/01/18 08:03:22;;;;;;;5.95;0.30;;;-2.00;99.90;;;;;;5070860;28;20097;-65
2024/01/18 08:05:47;;;;;;;5.85;0.60;;;-2.00;99.90;;;;;;5066573;28;20039;-65
2024/01/18 08:08:13;;;;;;;3.38;0.90;;;-2.00;99.90;;;;;;5085920;27;20578;-65
2024/01/18 08:10:39;;;;;;;3.70;1.13;;;-2.00;99.90;;;;;;5070403;28;20486;-64
2024/01/18 08:13:06;;;;;;;3.33;1.15;;;-2.00;99.90;;;;;;5070779;28;20492;-65
2024/01/18 08:15:32;;;;;;;4.63;1.60;;;-1.90;99.90;;;;;;5070171;28;20050;-65
2024/01/18 08:17:57;;;;;;;4.75;1.40;;;-1.90;99.90;;;;;;5073714;28;20066;-65
2024/01/18 08:20:23;;;;;;;4.15;1.30;;;-1.90;99.90;;;;;;5097875;27;20101;-64
2024/01/18 08:22:49;;;;;;;4.35;0.98;;;-1.90;99.90;;;;;;5071088;28;20569;-65
2024/01/18 08:25:15;;;;;;;3.85;1.00;;;-1.90;99.90;;;;;;5070785;28;20067;-65
2024/01/18 08:27:42;;;;;;;5.43;0.90;;;-1.90;99.90;;;;;;5074043;28;20048;-65
2024/01/18 08:30:09;;;;;;;5.10;0.80;;;-2.00;99.90;;;;;;5069695;28;20777;-65
2024/01/18 08:32:35;;;;;;;3.28;0.60;;;-2.00;99.90;;;;;;5068441;28;20047;-65
2024/01/18 08:35:01;;;;;;;2.08;0.47;;;-2.00;99.90;;;;;;5068291;28;20044;-65
2024/01/18 08:37:27;;;;;;;3.05;0.45;;;-1.10;99.90;;;;;;5067406;28;20482;-64
2024/01/18 08:39:53;;;;;;;5.93;0.80;;;-1.90;99.90;;;;;;5070101;28;20039;-65
2024/01/18 08:42:18;;;;;;;2.60;1.02;;;-1.80;99.90;;;;;;5072376;28;20606;-64
2024/01/18 08:44:45;;;;;;;4.35;0.40;;;-1.80;99.90;;;;;;5068514;28;20057;-65
2024/01/18 08:47:15;;;;;;;1.67;0.40;;;-1.70;99.90;;;;;;5068776;28;20049;-65
2024/01/18 08:49:40;;;;;;;6.82;1.42;;;-1.60;99.90;;;;;;5067470;28;20082;-65
2024/01/18 08:52:07;;;;;;;2.17;0.40;;;-1.60;99.90;;;;;;5071781;28;20173;-65
2024/01/18 08:54:33;;;;;;;4.20;0.52;;;-1.50;99.90;;;;;;5105982;27;20059;-64
2024/01/18 08:56:58;;;;;;;3.70;0.35;;;-1.40;99.90;;;;;;5066984;28;20044;-65
2024/01/18 08:59:24;;;;;;;2.30;0.30;;;-1.40;99.90;;;;;;5096487;27;20032;-65
2024/01/18 09:01:51;;;;;;;3.13;0.43;;;-1.20;99.90;;;;;;5069652;28;20090;-66
2024/01/18 09:04:16;;;;;;;1.05;0.20;;;-1.20;99.90;;;;;;5070551;28;20111;-64
2024/01/18 09:06:45;;;;;;;2.38;0.30;;;-1.10;99.90;;;;;;5066334;28;20043;-64
2024/01/18 09:09:11;;;;;;;1.70;0.10;;;-1.10;99.90;;;;;;5068506;28;20926;-65
2024/01/18 09:11:39;;;;;;;3.80;0.20;;;-1.00;99.90;;;;;;5069113;28;20063;-65
2024/01/18 09:14:05;;;;;;;6.60;0.85;;;-0.90;99.90;;;;;;5066333;28;20048;-65
2024/01/18 09:16:31;;;;;;;4.25;0.28;;;-0.90;99.90;;;;;;5070057;28;20051;-65
2024/01/18 09:18:58;;;;;;;4.40;0.20;;;-0.80;99.90;;;;;;5095887;27;20052;-65
2024/01/18 09:21:24;;;;;;;2.15;0.22;;;-0.80;99.90;;;;;;5070446;28;20055;-65
2024/01/18 09:23:50;;;;;;;2.63;0.30;;;-0.80;99.90;;;;;;5097343;27;20071;-65
2024/01/18 09:26:16;;;;;;;2.65;0.20;;;-0.70;99.90;;;;;;5069165;28;20040;-66
2024/01/18 09:28:43;;;;;;;1.20;0.22;;;-0.60;99.90;;;;;;5069520;28;20486;-65
2024/01/18 09:31:09;;;;;;;2.42;0.40;;;-0.50;99.90;;;;;;5065461;28;20055;-65
2024/01/18 09:33:37;;;;;;;3.58;0.32;;;-0.50;99.90;;;;;;5070787;28;20036;-66
2024/01/18 09:36:06;;;;;;;4.43;1.63;;;-0.40;99.90;;;;;;5079517;28;20063;-66
2024/01/18 09:38:36;;;;;;;2.80;0.30;;;-0.30;99.90;;;;;;5078144;28;20044;-65
2024/01/18 09:41:04;;;;;;;2.13;0.20;;;-0.30;99.90;;;;;;5066424;28;21006;-66
2024/01/18 09:43:37;;;;;;;5.22;0.30;;;-0.20;99.90;;;;;;5088989;28;20048;-65
2024/01/18 09:46:06;;;;;;;2.63;0.35;;;-0.20;99.90;;;;;;5078681;28;20043;-65
2024/01/18 09:48:33;;;;;;;3.00;0.40;;;-0.10;99.90;;;;;;5073354;28;20044;-65
2024/01/18 09:51:00;;;;;;;3.42;0.60;;;0.00;99.90;;;;;;5075201;28;20047;-65
2024/01/18 09:53:27;;;;;;;3.00;0.40;;;0.00;99.90;;;;;;5072712;28;20084;-64
2024/01/18 09:55:53;;;;;;;5.07;0.30;;;0.00;99.90;;;;;;5075044;28;20706;-65
2024/01/18 09:58:19;;;;;;;3.78;0.30;;;0.10;99.90;;;;;;5080184;28;20048;-65
2024/01/18 10:00:57;;;;;;;3.17;0.35;;;0.20;99.90;;;;;;5100483;27;20178;-65
2024/01/18 10:03:24;;;;;;;4.15;0.40;;;0.30;99.90;;;;;;5097830;27;20151;-64
2024/01/18 10:05:50;;;;;;;6.93;0.50;;;0.30;99.90;;;;;;5098131;27;20118;-65
2024/01/18 10:08:16;;;;;;;1.67;0.28;;;0.40;99.90;;;;;;5072971;28;20040;-65
2024/01/18 10:10:45;;;;;;;1.98;0.32;;;0.50;99.90;;;;;;5070983;28;20085;-65
2024/01/18 10:13:14;;;;;;;1.27;0.30;;;0.60;99.90;;;;;;5072091;28;20487;-65
2024/01/18 10:15:40;;;;;;;3.70;0.35;;;0.70;99.90;;;;;;5072667;28;20032;-64
2024/01/18 10:18:06;;;;;;;2.25;0.20;;;0.70;99.90;;;;;;5073338;28;21033;-65
2024/01/18 10:20:32;;;;;;;6.00;0.40;;;0.70;99.90;;;;;;5098875;27;20167;-65
2024/01/18 10:23:01;;;;;;;4.25;0.40;;;0.90;99.90;;;;;;5076088;28;20477;-66
2024/01/18 10:25:28;;;;;;;2.30;0.20;;;0.90;99.90;;;;;;5076232;28;20084;-64
2024/01/18 10:27:55;;;;;;;1.33;0.30;;;1.10;99.90;;;;;;5075483;28;20545;-65
2024/01/18 10:30:21;;;;;;;3.13;0.25;;;1.60;99.90;;;;;;5070395;28;20040;-65
2024/01/18 10:32:47;;;;;;;1.05;0.25;;;1.40;99.90;;;;;;5071186;28;20055;-65
2024/01/18 10:35:28;;;;;;;2.33;0.73;;;1.50;99.90;;;;;;5071315;28;20035;-65
2024/01/18 10:38:05;;;;;;;2.83;0.47;;;1.60;99.90;;;;;;5071216;28;20055;-65
2024/01/18 10:40:33;;;;;;;1.88;0.20;;;1.70;99.90;;;;;;5073522;28;20052;-65
2024/01/18 10:43:00;;;;;;;5.95;0.65;;;1.80;99.90;;;;;;5056251;28;20536;-64
2024/01/18 10:45:30;;;;;;;1.23;0.30;;;2.00;99.90;;;;;;5072924;28;21175;-64
2024/01/18 10:47:56;;;;;;;1.50;0.30;;;1.90;99.90;;;;;;5083452;27;20509;-65
2024/01/18 10:50:23;;;;;;;2.17;0.95;;;2.10;99.90;;;;;;5098164;27;20055;-65
2024/01/18 10:52:49;;;;;;;2.65;0.30;;;2.20;99.90;;;;;;5097741;27;20048;-64
2024/01/18 10:55:15;;;;;;;4.68;0.50;;;2.30;99.90;;;;;;5096043;27;20060;-64
2024/01/18 10:57:40;;;;;;;2.47;0.40;;;2.40;99.90;;;;;;5097100;27;21106;-63
2024/01/18 11:00:07;;;;;;;3.33;0.30;;;2.40;99.90;;;;;;5069803;28;20074;-65
2024/01/18 11:02:40;;;;;;;4.40;0.50;;;2.50;99.90;;;;;;5074119;28;20135;-65
2024/01/18 11:05:09;;;;;;;3.10;0.40;;;2.60;99.90;;;;;;5071660;28;20125;-65
2024/01/18 11:07:37;;;;;;;4.05;1.05;;;2.70;99.90;;;;;;5069897;28;20461;-65
2024/01/18 11:10:08;;;;;;;5.45;0.75;;;2.80;99.90;;;;;;5070000;28;20063;-66
2024/01/18 11:12:35;;;;;;;2.35;0.30;;;2.70;99.90;;;;;;5069806;28;20048;-65
2024/01/18 11:15:01;;;;;;;2.20;0.30;;;2.70;99.90;;;;;;5075912;28;20053;-65
2024/01/18 11:17:27;;;;;;;3.72;0.32;;;2.70;99.90;;;;;;5104952;27;20773;-65
2024/01/18 11:19:55;;;;;;;2.78;0.40;;;2.70;99.90;;;;;;5064894;28;20083;-65
2024/01/18 11:22:26;;;;;;;2.83;0.35;;;2.80;99.90;;;;;;5072821;28;20052;-65
2024/01/18 11:24:51;;;;;;;2.50;0.50;;;3.00;99.90;;;;;;5071366;28;20495;-65
2024/01/18 11:27:21;;;;;;;6.20;0.50;;;3.20;99.90;;;;;;5071280;28;20123;-65
2024/01/18 11:29:49;;;;;;;3.45;0.40;;;3.50;99.90;;;;;;5070529;28;20130;-65
2024/01/18 11:32:17;;;;;;;1.42;0.55;;;3.70;99.90;;;;;;5067087;28;20048;-65
2024/01/18 11:34:47;;;;;;;1.23;0.30;;;3.90;99.90;;;;;;5075668;28;20050;-65
2024/01/18 11:37:15;;;;;;;1.75;0.30;;;4.10;99.90;;;;;;5063374;28;20059;-65
2024/01/18 11:39:49;;;;;;;2.50;0.20;;;4.40;99.90;;;;;;5066351;28;20039;-65
2024/01/18 11:42:15;;;;;;;2.00;0.50;;;4.60;99.90;;;;;;5065275;28;20048;-65
2024/01/18 11:44:59;;;;;;;2.28;0.25;;;4.70;99.90;;;;;;5092898;27;20047;-66
2024/01/18 11:47:29;;;;;;;2.53;0.10;;;4.70;99.90;;;;;;5067144;28;20063;-66
2024/01/18 11:49:56;;;;;;;1.65;0.30;;;4.60;99.90;;;;;;5068074;28;20040;-66
2024/01/18 11:52:23;;;;;;;2.15;0.20;;;5.30;99.90;;;;;;5093285;27;20055;-66
2024/01/18 11:55:11;;;;;;;1.83;0.30;;;4.50;99.90;;;;;;5066185;28;20039;-65
2024/01/18 11:57:37;;;;;;;1.42;0.20;;;4.40;99.90;;;;;;5094633;27;20051;-66
2024/01/18 12:00:04;;;;;;;4.22;0.20;;;4.40;99.90;;;;;;5063947;28;20599;-66
2024/01/18 12:02:30;;;;;;;1.08;0.30;;;4.10;99.90;;;;;;5072656;28;20493;-66
2024/01/18 12:04:56;;;;;;;1.23;0.20;;;4.10;99.90;;;;;;5066527;28;20044;-66
2024/01/18 12:07:24;;;;;;;0.60;0.57;;;4.00;99.90;;;;;;5064010;28;20035;-66
2024/01/18 12:09:50;;;;;;;1.58;0.50;;;3.80;99.90;;;;;;5093528;27;20157;-66
2024/01/18 12:12:17;;;;;;;3.55;0.30;;;3.70;99.90;;;;;;5074200;28;20737;-66
2024/01/18 12:14:44;;;;;;;0.98;0.13;;;3.70;99.90;;;;;;5070437;28;20576;-65
2024/01/18 12:17:14;;;;;;;3.10;0.20;;;3.70;99.90;;;;;;5066235;28;20069;-65
2024/01/18 12:19:42;;;;;;;1.30;0.20;;;3.80;99.90;;;;;;5084110;27;20075;-66
2024/01/18 12:22:10;;;;;;;2.10;0.20;;;4.00;99.90;;;;;;5072116;28;20044;-65
2024/01/18 12:24:37;;;;;;;3.33;0.20;;;4.10;99.90;;;;;;5066540;28;20040;-65
2024/01/18 12:27:06;;;;;;;0.95;0.20;;;4.00;99.90;;;;;;5066421;28;20047;-66
2024/01/18 12:29:33;;;;;;;2.17;0.20;;;4.00;99.90;;;;;;5064194;28;20166;-66
2024/01/18 12:32:03;;;;;;;2.83;0.20;;;4.10;99.90;;;;;;5067641;28;20108;-66
2024/01/18 12:34:30;;;;;;;1.98;0.20;;;4.10;99.90;;;;;;5094372;27;20040;-66
2024/01/18 12:36:56;;;;;;;1.67;0.20;;;4.10;99.90;;;;;;5066366;28;20054;-66
2024/01/18 12:39:22;;;;;;;2.35;0.20;;;4.10;99.90;;;;;;5093624;27;20054;-65
2024/01/18 12:41:53;;;;;;;1.25;0.10;;;4.20;99.90;;;;;;5092942;27;20036;-66
2024/01/18 12:44:19;;;;;;;2.65;0.20;;;4.20;99.90;;;;;;5067308;28;20040;-66